createdAt,value
2022-11-15T00:00:30.986Z,48.14
2022-11-15T00:03:17.428Z,48.18
2022-11-15T00:06:05.063Z,48.04
2022-11-15T00:08:51.992Z,48.21
2022-11-15T00:11:39.485Z,47.94
2022-11-15T00:14:27.977Z,47.87
2022-11-15T00:17:14.957Z,48.08
2022-11-15T00:20:01.873Z,47.85
2022-11-15T00:22:48.773Z,48.34
2022-11-15T00:25:35.972Z,48.19
2022-11-15T00:28:22.709Z,48.01
2022-11-15T00:31:14.143Z,48.39
2022-11-15T00:34:00.888Z,48.18
2022-11-15T00:36:47.976Z,48.44
2022-11-15T00:39:34.568Z,48.44
2022-11-15T00:42:21.920Z,48.19
2022-11-15T00:45:09.834Z,47.99
2022-11-15T00:47:58.781Z,47.92
2022-11-15T00:50:45.673Z,48.30
2022-11-15T00:53:33.328Z,48.39
2022-11-15T00:56:20.336Z,47.90
2022-11-15T00:59:07.014Z,48.22
2022-11-15T01:01:54.232Z,48.13
2022-11-15T01:04:42.545Z,48.49
2022-11-15T01:07:29.831Z,48.55
2022-11-15T01:10:17.062Z,48.18
2022-11-15T01:13:03.832Z,48.23
2022-11-15T01:15:51.009Z,48.54
2022-11-15T01:18:37.785Z,48.41
2022-11-15T01:21:26.386Z,48.44
2022-11-15T01:24:13.671Z,48.30
2022-11-15T01:27:00.568Z,48.29
2022-11-15T01:29:47.447Z,48.56
2022-11-15T01:32:34.494Z,48.46
2022-11-15T01:35:21.974Z,48.51
2022-11-15T01:38:10.639Z,48.51
2022-11-15T01:40:57.506Z,48.11
2022-11-15T01:43:44.305Z,48.18
2022-11-15T01:46:32.230Z,48.27
2022-11-15T01:49:19.476Z,48.16
2022-11-15T01:52:07.808Z,48.29
2022-11-15T01:55:00.668Z,48.26
2022-11-15T01:57:48.831Z,48.61
2022-11-15T02:00:35.716Z,48.17
2022-11-15T02:03:23.141Z,48.22
2022-11-15T02:06:09.998Z,48.08
2022-11-15T02:08:57.221Z,47.91
2022-11-15T02:11:47.744Z,48.47
2022-11-15T02:14:34.740Z,48.09
2022-11-15T02:17:39.879Z,48.33
2022-11-15T02:20:44.583Z,48.32
2022-11-15T02:23:58.674Z,48.51
2022-11-15T02:27:28.465Z,48.04
2022-11-15T02:30:37.205Z,48.00
2022-11-15T02:33:29.944Z,48.47
2022-11-15T02:36:18.106Z,48.02
2022-11-15T02:39:08.331Z,48.49
2022-11-15T02:41:56.459Z,48.20
2022-11-15T02:44:44.857Z,48.40
2022-11-15T02:47:33.873Z,48.72
2022-11-15T02:50:23.316Z,48.75
2022-11-15T02:53:10.541Z,48.38
2022-11-15T02:55:57.829Z,48.40
2022-11-15T02:59:08.604Z,48.39
2022-11-15T03:02:03.906Z,48.18
2022-11-15T03:04:55.558Z,48.42
2022-11-15T03:07:45.289Z,48.89
2022-11-15T03:10:35.246Z,48.46
2022-11-15T03:13:26.389Z,48.78
2022-11-15T03:16:17.450Z,48.78
2022-11-15T03:19:07.221Z,48.42
2022-11-15T03:21:55.173Z,48.56
2022-11-15T03:24:42.084Z,48.85
2022-11-15T03:27:30.821Z,48.72
2022-11-15T03:30:18.662Z,48.21
2022-11-15T03:33:05.462Z,48.73
2022-11-15T03:35:52.120Z,48.60
2022-11-15T03:38:40.707Z,49.04
2022-11-15T03:41:30.470Z,48.29
2022-11-15T03:44:22.569Z,48.88
2022-11-15T03:47:11.047Z,48.65
2022-11-15T03:50:01.076Z,48.23
2022-11-15T03:52:48.272Z,48.66
2022-11-15T03:55:36.632Z,48.74
2022-11-15T03:58:23.554Z,48.84
2022-11-15T04:01:10.806Z,48.22
2022-11-15T04:03:57.810Z,48.64
2022-11-15T04:06:44.408Z,48.65
2022-11-15T04:09:31.528Z,48.21
2022-11-15T04:12:31.832Z,48.71
2022-11-15T04:15:19.699Z,49.07
2022-11-15T04:18:06.560Z,48.93
2022-11-15T04:21:10.170Z,48.18
2022-11-15T04:24:15.637Z,48.88
2022-11-15T04:27:02.293Z,49.03
2022-11-15T04:29:50.924Z,48.80
2022-11-15T04:32:37.848Z,48.66
2022-11-15T04:35:24.816Z,49.07
2022-11-15T04:38:12.362Z,48.77
2022-11-15T04:40:59.596Z,48.62
2022-11-15T04:43:46.271Z,48.92
2022-11-15T04:46:34.302Z,48.68
2022-11-15T04:49:21.247Z,48.59
2022-11-15T04:52:08.411Z,49.00
2022-11-15T04:54:55.457Z,49.01
2022-11-15T04:57:42.869Z,48.64
2022-11-15T05:00:29.805Z,48.49
2022-11-15T05:03:35.609Z,48.69
2022-11-15T05:06:22.909Z,48.61
2022-11-15T05:09:10.461Z,49.03
2022-11-15T05:11:57.519Z,49.01
2022-11-15T05:14:45.518Z,48.44
2022-11-15T05:17:32.216Z,48.33
2022-11-15T05:20:20.732Z,48.47
2022-11-15T05:23:08.092Z,48.41
2022-11-15T05:25:54.702Z,48.98
2022-11-15T05:28:42.113Z,48.81
2022-11-15T05:31:28.898Z,48.41
2022-11-15T05:34:15.800Z,48.97
2022-11-15T05:37:04.309Z,48.80
2022-11-15T05:39:51.174Z,48.67
2022-11-15T05:42:37.917Z,48.80
2022-11-15T05:45:27.758Z,48.57
2022-11-15T05:48:14.664Z,48.56
2022-11-15T05:51:01.222Z,48.56
2022-11-15T05:53:49.617Z,48.81
2022-11-15T05:56:36.364Z,49.16
2022-11-15T05:59:22.917Z,49.04
2022-11-15T06:02:10.212Z,49.14
2022-11-15T06:04:57.133Z,48.79
2022-11-15T06:07:45.294Z,49.08
2022-11-15T06:10:33.509Z,48.69
2022-11-15T06:13:20.692Z,49.04
2022-11-15T06:16:08.019Z,48.58
2022-11-15T06:18:55.023Z,48.70
2022-11-15T06:21:42.053Z,48.83
2022-11-15T06:24:29.264Z,48.54
2022-11-15T06:27:18.254Z,48.54
2022-11-15T06:30:05.600Z,48.53
2022-11-15T06:32:52.942Z,48.49
2022-11-15T06:35:39.901Z,49.05
2022-11-15T06:38:26.920Z,48.42
2022-11-15T06:41:14.572Z,48.84
2022-11-15T06:44:02.952Z,48.45
2022-11-15T06:46:50.036Z,48.91
2022-11-15T06:49:36.743Z,48.72
2022-11-15T06:52:23.937Z,48.85
2022-11-15T06:55:11.391Z,48.84
2022-11-15T06:57:58.076Z,48.97
2022-11-15T07:00:46.071Z,48.89
2022-11-15T07:03:33.251Z,48.97
2022-11-15T07:06:20.504Z,48.67
2022-11-15T07:09:07.317Z,48.73
2022-11-15T07:11:54.710Z,48.38
2022-11-15T07:14:41.776Z,48.03
2022-11-15T07:17:30.528Z,48.52
2022-11-15T07:20:17.993Z,48.45
2022-11-15T07:23:05.097Z,48.55
2022-11-15T07:25:51.839Z,48.40
2022-11-15T07:28:39.003Z,48.29
2022-11-15T07:31:26.632Z,48.17
2022-11-15T07:34:15.225Z,48.12
2022-11-15T07:37:02.111Z,47.87
2022-11-15T07:39:49.209Z,48.20
2022-11-15T07:42:54.877Z,48.03
2022-11-15T07:45:43.533Z,48.21
2022-11-15T07:48:42.952Z,48.26
2022-11-15T07:51:32.585Z,47.94
2022-11-15T07:54:19.258Z,47.99
2022-11-15T07:57:07.896Z,47.93
2022-11-15T07:59:54.945Z,47.56
2022-11-15T08:02:42.257Z,47.64
2022-11-15T08:05:29.174Z,47.91
2022-11-15T08:08:17.757Z,47.71
2022-11-15T08:11:05.451Z,47.83
2022-11-15T08:13:52.624Z,47.83
2022-11-15T08:16:39.513Z,47.81
2022-11-15T08:19:26.828Z,47.72
2022-11-15T08:22:13.840Z,47.60
2022-11-15T08:25:02.811Z,47.77
2022-11-15T08:27:49.784Z,47.33
2022-11-15T08:30:38.542Z,47.69
2022-11-15T08:33:25.688Z,47.53
2022-11-15T08:36:16.594Z,47.38
2022-11-15T08:39:03.464Z,47.28
2022-11-15T08:41:51.484Z,47.56
2022-11-15T08:44:38.927Z,47.16
2022-11-15T08:47:25.938Z,47.57
2022-11-15T08:50:12.425Z,47.27
2022-11-15T08:52:59.508Z,47.09
2022-11-15T08:55:47.997Z,47.99
2022-11-15T08:58:36.378Z,47.14
2022-11-15T09:01:23.685Z,47.17
2022-11-15T09:04:10.593Z,47.66
2022-11-15T09:07:00.252Z,47.21
2022-11-15T09:09:47.430Z,47.08
2022-11-15T09:12:34.618Z,47.21
2022-11-15T09:15:23.507Z,47.58
2022-11-15T09:18:10.474Z,47.21
2022-11-15T09:20:58.759Z,47.53
2022-11-15T09:23:46.214Z,47.34
2022-11-15T09:26:33.008Z,47.25
2022-11-15T09:29:20.281Z,47.35
2022-11-15T09:32:08.658Z,47.40
2022-11-15T09:34:55.898Z,47.44
2022-11-15T09:37:42.521Z,47.20
2022-11-15T09:40:30.099Z,47.00
2022-11-15T09:43:33.732Z,47.47
2022-11-15T09:46:23.685Z,46.01
2022-11-15T09:49:11.718Z,45.77
2022-11-15T09:51:55.862Z,45.56
2022-11-15T09:54:52.284Z,45.71
2022-11-15T09:57:21.340Z,46.10
2022-11-15T10:00:07.674Z,45.96
2022-11-15T10:02:50.049Z,45.95
2022-11-15T10:05:21.976Z,46.37
2022-11-15T10:07:58.663Z,46.26
2022-11-15T10:10:29.732Z,46.27
2022-11-15T10:12:57.997Z,46.33
2022-11-15T10:15:26.535Z,46.01
2022-11-15T10:18:08.843Z,46.23
2022-11-15T10:20:44.851Z,46.77
2022-11-15T10:23:14.384Z,47.04
2022-11-15T10:25:42.735Z,46.55
2022-11-15T10:28:17.489Z,47.10
2022-11-15T10:30:47.198Z,47.25
2022-11-15T10:33:28.549Z,47.26
2022-11-15T10:36:32.957Z,47.25
2022-11-15T10:39:01.238Z,47.88
2022-11-15T10:41:35.801Z,48.14
2022-11-15T10:44:19.383Z,48.14
2022-11-15T10:46:49.722Z,48.31
2022-11-15T10:49:19.072Z,47.94
2022-11-15T10:51:50.357Z,48.35
2022-11-15T10:54:22.505Z,48.06
2022-11-15T10:56:51.869Z,48.61
2022-11-15T10:59:23.301Z,48.43
2022-11-15T11:01:51.636Z,48.09
2022-11-15T11:04:20.585Z,48.63
2022-11-15T11:06:52.201Z,48.39
2022-11-15T11:09:26.017Z,48.10
2022-11-15T11:11:54.509Z,48.56
2022-11-15T11:14:24.209Z,48.32
2022-11-15T11:16:54.020Z,48.02
2022-11-15T11:19:43.901Z,48.16
2022-11-15T11:22:20.035Z,48.27
2022-11-15T11:24:53.191Z,48.27
2022-11-15T11:27:28.972Z,48.26
2022-11-15T11:30:04.822Z,46.72
2022-11-15T11:32:43.441Z,46.64
2022-11-15T11:35:14.590Z,46.75
2022-11-15T11:37:48.399Z,46.93
2022-11-15T11:40:27.384Z,46.89
2022-11-15T11:43:00.414Z,46.83
2022-11-15T11:45:54.230Z,47.26
2022-11-15T11:48:26.285Z,47.15
2022-11-15T11:50:54.564Z,47.23
2022-11-15T11:53:28.061Z,47.23
2022-11-15T11:55:58.280Z,46.71
2022-11-15T11:58:29.126Z,46.66
2022-11-15T12:00:58.660Z,47.17
2022-11-15T12:03:37.317Z,46.91
2022-11-15T12:06:11.137Z,46.75
2022-11-15T12:08:43.481Z,46.71
2022-11-15T12:11:13.546Z,46.42
2022-11-15T12:13:42.154Z,46.38
2022-11-15T12:16:15.306Z,46.64
2022-11-15T12:18:45.709Z,46.46
2022-11-15T12:21:17.382Z,46.58
2022-11-15T12:23:48.583Z,46.76
2022-11-15T12:26:19.657Z,46.34
2022-11-15T12:29:06.273Z,46.81
2022-11-15T12:31:39.477Z,46.15
2022-11-15T12:34:31.550Z,46.19
2022-11-15T12:37:00.042Z,46.20
2022-11-15T12:40:04.113Z,45.98
2022-11-15T12:42:43.209Z,46.04
2022-11-15T12:45:27.465Z,46.31
2022-11-15T12:47:55.771Z,45.91
2022-11-15T12:50:56.803Z,46.29
2022-11-15T12:53:35.005Z,46.17
2022-11-15T12:56:25.623Z,45.94
2022-11-15T12:58:59.930Z,45.71
2022-11-15T13:02:00.537Z,46.02
2022-11-15T13:04:33.074Z,45.90
2022-11-15T13:07:02.604Z,45.88
2022-11-15T13:09:53.886Z,45.51
2022-11-15T13:12:54.172Z,45.85
2022-11-15T13:16:04.302Z,45.91
2022-11-15T13:18:47.135Z,45.92
2022-11-15T13:21:40.608Z,45.98
2022-11-15T13:24:14.826Z,45.80
2022-11-15T13:26:43.265Z,45.50
2022-11-15T13:29:19.254Z,45.68
2022-11-15T13:31:47.540Z,46.06
2022-11-15T13:34:51.124Z,45.50
2022-11-15T13:37:31.377Z,46.26
2022-11-15T13:40:13.246Z,46.21
2022-11-15T13:42:45.651Z,46.33
2022-11-15T13:45:16.158Z,45.98
2022-11-15T13:47:44.555Z,45.94
2022-11-15T13:50:14.694Z,46.03
2022-11-15T13:52:44.884Z,46.07
2022-11-15T13:55:15.127Z,45.85
2022-11-15T13:57:45.648Z,46.09
2022-11-15T14:00:31.133Z,45.89
2022-11-15T14:02:59.658Z,45.91
2022-11-15T14:05:29.725Z,46.07
2022-11-15T14:07:58.873Z,46.42
2022-11-15T14:10:29.812Z,46.40
2022-11-15T14:12:58.765Z,46.11
2022-11-15T14:15:30.132Z,46.38
2022-11-15T14:17:58.450Z,46.26
2022-11-15T14:20:36.221Z,45.99
2022-11-15T14:23:06.662Z,46.08
2022-11-15T14:25:36.251Z,46.23
2022-11-15T14:28:31.949Z,46.14
2022-11-15T14:31:01.582Z,46.29
2022-11-15T14:33:31.491Z,46.32
2022-11-15T14:36:05.439Z,46.67
2022-11-15T14:38:34.128Z,46.38
2022-11-15T14:41:03.208Z,46.19
2022-11-15T14:43:31.532Z,46.49
2022-11-15T14:46:00.341Z,46.27
2022-11-15T14:48:28.854Z,46.51
2022-11-15T14:50:57.926Z,46.06
2022-11-15T14:53:27.668Z,46.12
2022-11-15T14:55:56.073Z,46.41
2022-11-15T14:58:24.358Z,46.33
2022-11-15T15:00:52.638Z,46.29
2022-11-15T15:03:21.237Z,46.23
2022-11-15T15:05:49.935Z,46.36
2022-11-15T15:08:18.392Z,46.19
2022-11-15T15:10:48.301Z,46.60
2022-11-15T15:13:19.089Z,46.55
2022-11-15T15:15:47.365Z,46.51
2022-11-15T15:18:16.479Z,46.60
2022-11-15T15:20:46.683Z,46.51
2022-11-15T15:23:19.174Z,46.05
2022-11-15T15:25:50.207Z,46.15
2022-11-15T15:28:18.865Z,46.08
2022-11-15T15:30:47.237Z,45.03
2022-11-15T15:33:15.621Z,45.12
2022-11-15T15:35:44.088Z,45.48
2022-11-15T15:38:14.183Z,45.33
2022-11-15T15:40:42.773Z,45.75
2022-11-15T15:43:13.477Z,45.30
2022-11-15T15:45:42.964Z,45.58
2022-11-15T15:48:13.397Z,45.27
2022-11-15T15:50:43.982Z,45.36
2022-11-15T15:53:13.357Z,45.74
2022-11-15T15:55:42.631Z,45.24
2022-11-15T15:58:12.920Z,45.11
2022-11-15T16:00:42.037Z,45.66
2022-11-15T16:03:11.835Z,45.24
2022-11-15T16:05:42.160Z,45.40
2022-11-15T16:08:15.448Z,45.61
2022-11-15T16:10:44.325Z,45.82
2022-11-15T16:13:14.032Z,45.38
2022-11-15T16:15:42.484Z,45.71
2022-11-15T16:18:15.117Z,45.82
2022-11-15T16:20:45.456Z,45.52
2022-11-15T16:23:15.111Z,45.57
2022-11-15T16:25:51.092Z,45.95
2022-11-15T16:28:22.769Z,45.94
2022-11-15T16:30:56.600Z,45.50
2022-11-15T16:33:26.829Z,45.47
2022-11-15T16:35:55.486Z,45.74
2022-11-15T16:38:24.014Z,45.87
2022-11-15T16:40:52.922Z,45.76
2022-11-15T16:43:22.962Z,46.10
2022-11-15T16:45:51.506Z,46.01
2022-11-15T16:48:23.734Z,45.90
2022-11-15T16:50:52.452Z,45.88
2022-11-15T16:53:20.903Z,46.26
2022-11-15T16:55:49.409Z,46.14
2022-11-15T16:58:17.690Z,46.05
2022-11-15T17:00:48.784Z,46.25
2022-11-15T17:03:17.392Z,45.92
2022-11-15T17:05:45.880Z,45.79
2022-11-15T17:08:14.102Z,45.95
2022-11-15T17:10:43.134Z,46.28
2022-11-15T17:13:12.909Z,46.32
2022-11-15T17:15:41.407Z,45.90
2022-11-15T17:18:12.439Z,46.04
2022-11-15T17:20:41.918Z,46.23
2022-11-15T17:23:14.761Z,45.82
2022-11-15T17:25:43.618Z,46.12
2022-11-15T17:28:12.215Z,46.33
2022-11-15T17:30:43.291Z,46.02
2022-11-15T17:33:13.180Z,46.29
2022-11-15T17:35:41.472Z,45.86
2022-11-15T17:38:09.840Z,45.96
2022-11-15T17:40:38.392Z,46.01
2022-11-15T17:43:07.444Z,46.09
2022-11-15T17:45:37.642Z,46.12
2022-11-15T17:48:06.358Z,45.88
2022-11-15T17:50:37.881Z,45.90
2022-11-15T17:53:06.353Z,46.01
2022-11-15T17:55:34.913Z,46.11
2022-11-15T17:58:03.241Z,46.62
2022-11-15T18:00:31.525Z,45.90
2022-11-15T18:02:59.951Z,46.25
2022-11-15T18:05:28.153Z,46.27
2022-11-15T18:07:59.157Z,46.09
2022-11-15T18:10:27.518Z,45.97
2022-11-15T18:12:55.803Z,46.33
2022-11-15T18:15:24.172Z,46.12
2022-11-15T18:17:55.852Z,46.24
2022-11-15T18:20:28.959Z,46.34
2022-11-15T18:22:58.992Z,45.89
2022-11-15T18:25:27.396Z,45.88
2022-11-15T18:27:55.885Z,46.13
2022-11-15T18:30:24.644Z,45.75
2022-11-15T18:32:53.911Z,46.20
2022-11-15T18:35:22.227Z,46.11
2022-11-15T18:37:50.673Z,45.77
2022-11-15T18:40:21.021Z,45.96
2022-11-15T18:42:49.450Z,45.89
2022-11-15T18:45:22.953Z,45.88
2022-11-15T18:47:52.453Z,46.06
2022-11-15T18:50:21.100Z,46.34
2022-11-15T18:52:49.617Z,45.87
2022-11-15T18:55:17.967Z,46.28
2022-11-15T18:57:47.824Z,45.99
2022-11-15T19:00:17.496Z,45.99
2022-11-15T19:02:46.034Z,45.79
2022-11-15T19:05:17.308Z,46.05
2022-11-15T19:07:49.355Z,46.21
2022-11-15T19:10:18.095Z,45.95
2022-11-15T19:12:47.824Z,46.49
2022-11-15T19:15:16.361Z,46.08
2022-11-15T19:17:44.627Z,45.77
2022-11-15T19:20:13.060Z,46.17
2022-11-15T19:22:41.497Z,46.11
2022-11-15T19:25:11.002Z,46.02
2022-11-15T19:27:39.402Z,46.14
2022-11-15T19:30:11.466Z,45.90
2022-11-15T19:32:40.113Z,46.12
2022-11-15T19:35:08.890Z,46.03
2022-11-15T19:37:37.194Z,46.36
2022-11-15T19:40:06.267Z,45.72
2022-11-15T19:42:34.573Z,45.95
2022-11-15T19:45:03.256Z,46.08
2022-11-15T19:47:33.037Z,45.77
2022-11-15T19:50:01.426Z,45.93
2022-11-15T19:52:29.884Z,45.91
2022-11-15T19:54:58.090Z,45.85
2022-11-15T19:57:26.510Z,45.37
2022-11-15T19:59:55.029Z,45.70
2022-11-15T20:02:23.380Z,45.24
2022-11-15T20:04:53.186Z,45.68
2022-11-15T20:07:21.573Z,45.76
2022-11-15T20:09:49.880Z,45.46
2022-11-15T20:12:18.198Z,45.81
2022-11-15T20:14:46.871Z,45.56
2022-11-15T20:17:15.210Z,45.21
2022-11-15T20:19:43.618Z,45.51
2022-11-15T20:22:13.425Z,45.50
2022-11-15T20:24:42.095Z,45.54
2022-11-15T20:27:10.601Z,45.42
2022-11-15T20:29:43.679Z,45.89
2022-11-15T20:32:13.310Z,46.18
2022-11-15T20:34:41.491Z,46.51
2022-11-15T20:37:10.042Z,46.50
2022-11-15T20:39:40.493Z,46.43
2022-11-15T20:42:09.638Z,46.74
2022-11-15T20:44:37.982Z,46.89
2022-11-15T20:47:06.985Z,46.64
2022-11-15T20:49:35.264Z,46.72
2022-11-15T20:52:03.557Z,46.85
2022-11-15T20:54:31.872Z,47.03
2022-11-15T20:57:01.619Z,46.48
2022-11-15T20:59:29.959Z,46.63
2022-11-15T21:01:58.510Z,46.66
2022-11-15T21:04:29.716Z,46.82
2022-11-15T21:06:58.753Z,47.25
2022-11-15T21:09:44.623Z,47.16
2022-11-15T21:12:14.730Z,46.77
2022-11-15T21:14:44.141Z,46.75
2022-11-15T21:17:12.444Z,46.59
2022-11-15T21:19:40.883Z,46.88
2022-11-15T21:22:10.243Z,46.99
2022-11-15T21:24:38.585Z,46.58
2022-11-15T21:27:07.018Z,46.47
2022-11-15T21:29:40.125Z,46.79
2022-11-15T21:32:09.004Z,46.66
2022-11-15T21:34:37.415Z,46.81
2022-11-15T21:37:05.747Z,46.71
2022-11-15T21:39:34.046Z,46.52
2022-11-15T21:42:02.403Z,46.40
2022-11-15T21:44:30.960Z,46.97
2022-11-15T21:47:00.768Z,46.92
2022-11-15T21:49:29.023Z,46.82
2022-11-15T21:52:01.870Z,46.51
2022-11-15T21:54:30.202Z,46.71
2022-11-15T21:56:58.772Z,46.75
2022-11-15T21:59:27.110Z,46.84
2022-11-15T22:02:12.816Z,46.54
2022-11-15T22:04:42.585Z,46.76
2022-11-15T22:07:10.966Z,46.68
2022-11-15T22:09:39.392Z,46.93
2022-11-15T22:12:07.877Z,47.05
2022-11-15T22:14:36.181Z,46.88
2022-11-15T22:17:04.633Z,46.83
2022-11-15T22:19:33.044Z,46.48
2022-11-15T22:22:03.164Z,47.01
2022-11-15T22:24:32.175Z,46.67
2022-11-15T22:27:00.549Z,47.28
2022-11-15T22:29:29.137Z,46.92
2022-11-15T22:31:58.118Z,46.71
2022-11-15T22:34:26.541Z,46.72
2022-11-15T22:37:19.096Z,46.54
2022-11-15T22:39:44.877Z,46.70
2022-11-15T22:42:13.493Z,46.66
2022-11-15T22:44:41.949Z,46.52
2022-11-15T22:47:10.367Z,46.55
2022-11-15T22:49:38.802Z,46.79
2022-11-15T22:52:07.343Z,46.48
2022-11-15T22:54:35.837Z,46.89
2022-11-15T22:57:05.662Z,46.87
2022-11-15T22:59:35.916Z,47.24
2022-11-15T23:02:04.549Z,46.87
2022-11-15T23:04:32.887Z,46.73
2022-11-15T23:07:01.425Z,46.90
2022-11-15T23:09:29.803Z,46.73
2022-11-15T23:12:15.898Z,46.79
2022-11-15T23:14:45.848Z,47.09
2022-11-15T23:17:14.266Z,46.85
2022-11-15T23:19:42.646Z,46.91
2022-11-15T23:22:28.653Z,46.81
2022-11-15T23:24:59.674Z,46.75
2022-11-15T23:27:28.150Z,46.65
2022-11-15T23:30:15.152Z,47.21
2022-11-15T23:33:00.744Z,46.59
2022-11-15T23:35:29.221Z,46.95
2022-11-15T23:37:57.573Z,47.17
2022-11-15T23:40:25.981Z,46.59
2022-11-15T23:42:54.348Z,46.80
2022-11-15T23:45:24.273Z,47.06
2022-11-15T23:47:57.028Z,47.08
2022-11-15T23:50:28.564Z,46.76
2022-11-15T23:52:56.982Z,47.30
2022-11-15T23:55:25.552Z,46.71
2022-11-15T23:57:54.066Z,46.91
